createdAt,value
2023-05-10T00:02:05.932Z,12.7
2023-05-10T00:04:10.886Z,11.3
2023-05-10T00:06:12.640Z,11
2023-05-10T00:08:14.417Z,15.7
2023-05-10T00:12:17.979Z,16.6
2023-05-10T00:14:19.751Z,12.8
2023-05-10T00:16:21.565Z,13.5
2023-05-10T00:18:26.556Z,13.4
2023-05-10T00:20:28.347Z,13.7
2023-05-10T00:22:30.149Z,17
2023-05-10T00:23:32.652Z,23
2023-05-10T00:25:34.436Z,18.4
2023-05-10T00:27:36.192Z,22.3
2023-05-10T00:29:38.001Z,32.6
2023-05-10T00:31:43.037Z,20.6
2023-05-10T00:33:44.779Z,29.7
2023-05-10T00:35:46.576Z,18.9
2023-05-10T00:37:48.357Z,30.9
2023-05-10T00:39:50.109Z,18
2023-05-10T00:41:51.911Z,19.4
2023-05-10T00:43:53.657Z,24.6
2023-05-10T00:48:00.522Z,25
2023-05-10T00:52:04.057Z,25.5
2023-05-10T00:54:05.812Z,22
2023-05-10T00:56:07.595Z,25.7
2023-05-10T00:58:09.360Z,24.3
2023-05-10T01:12:25.186Z,25.6
2023-05-10T01:19:36.193Z,31.9
2023-05-10T01:23:39.753Z,32.1
2023-05-10T01:25:41.513Z,27.8
2023-05-10T01:27:46.545Z,31
2023-05-10T01:29:50.270Z,26.6
2023-05-10T01:31:50.141Z,30.6
2023-05-10T01:33:53.456Z,32.3
2023-05-10T01:37:56.950Z,32.5
2023-05-10T01:39:58.743Z,26.1
2023-05-10T01:42:03.764Z,37.5
2023-05-10T01:44:05.533Z,35.2
2023-05-10T01:46:07.334Z,35
2023-05-10T01:48:09.190Z,31
2023-05-10T01:50:10.884Z,33.1
2023-05-10T01:52:12.666Z,39.1
2023-05-10T01:54:14.444Z,40
2023-05-10T01:58:21.254Z,37.2
2023-05-10T02:00:23.027Z,44.3
2023-05-10T02:02:24.856Z,39.9
2023-05-10T02:04:26.589Z,38.5
2023-05-10T02:06:28.378Z,46.5
2023-05-10T02:10:35.161Z,42.2
2023-05-10T02:12:36.972Z,43.6
2023-05-10T02:14:38.721Z,39
2023-05-10T02:17:07.331Z,41.7
2023-05-10T02:23:15.886Z,44
2023-05-10T02:25:17.661Z,42.7
2023-05-10T02:27:19.473Z,46.7
2023-05-10T02:29:21.233Z,41
2023-05-10T02:31:23.057Z,37.6
2023-05-10T02:33:24.764Z,38.8
2023-05-10T02:35:26.577Z,38.2
2023-05-10T02:37:31.582Z,52.9
2023-05-10T02:39:33.396Z,45.2
2023-05-10T02:41:35.154Z,43.1
2023-05-10T02:43:36.959Z,51.7
2023-05-10T02:45:38.746Z,48.6
2023-05-10T02:47:40.571Z,49.6
2023-05-10T02:49:42.324Z,51.1
2023-05-10T02:59:54.497Z,54.4
2023-05-10T03:01:56.468Z,47.7
2023-05-10T03:03:58.047Z,50.8
2023-05-10T03:08:04.900Z,62.6
2023-05-10T03:10:06.678Z,54.9
2023-05-10T03:11:09.157Z,54.1
2023-05-10T03:15:12.746Z,54.5
2023-05-10T03:19:19.588Z,69.8
2023-05-10T03:21:21.334Z,51
2023-05-10T03:23:23.152Z,61.4
2023-05-10T03:25:24.904Z,69.4
2023-05-10T03:31:30.297Z,61.8
2023-05-10T03:33:35.290Z,59.5
2023-05-10T03:35:37.112Z,61.1
2023-05-10T03:37:38.876Z,63.1
2023-05-10T03:39:40.690Z,58.4
2023-05-10T03:41:42.491Z,65.3
2023-05-10T03:43:44.222Z,54.7
2023-05-10T03:45:46.027Z,48.7
2023-05-10T03:47:51.108Z,54.2
2023-05-10T03:49:52.866Z,56.1
2023-05-10T03:51:54.654Z,49.7
2023-05-10T03:53:56.422Z,62.7
2023-05-10T04:07:12.915Z,54.8
2023-05-10T04:09:14.690Z,44.3
2023-05-10T04:11:16.464Z,62.2
2023-05-10T04:13:18.267Z,48.8
2023-05-10T04:15:23.303Z,41.9
2023-05-10T04:19:26.825Z,42.5
2023-05-10T04:27:33.988Z,46
2023-05-10T04:29:39.001Z,50.7
2023-05-10T04:31:40.798Z,53.2
2023-05-10T04:33:42.568Z,53.6
2023-05-10T04:35:44.352Z,48.5
2023-05-10T04:37:46.145Z,46
2023-05-10T04:39:47.937Z,46.9
2023-05-10T04:41:49.710Z,46.2
2023-05-10T04:43:54.751Z,60
2023-05-10T04:45:56.554Z,49.5
2023-05-10T04:47:58.389Z,57.4
2023-05-10T04:52:01.885Z,59.6
2023-05-10T04:54:06.471Z,48.2
2023-05-10T04:56:05.496Z,56.7
2023-05-10T05:03:16.641Z,59.5
2023-05-10T05:05:18.356Z,64.5
2023-05-10T05:07:20.150Z,56.3
2023-05-10T05:09:21.920Z,60.2
2023-05-10T05:11:26.946Z,71.2
2023-05-10T05:13:28.821Z,82.9
2023-05-10T05:15:30.521Z,77.2
2023-05-10T05:17:32.336Z,67.1
2023-05-10T05:19:34.112Z,79.8
2023-05-10T05:21:35.862Z,83.8
2023-05-10T05:25:42.703Z,86
2023-05-10T05:29:46.263Z,72
2023-05-10T05:31:48.083Z,66.9
2023-05-10T05:33:49.823Z,88.4
2023-05-10T05:37:53.407Z,85.5
2023-05-10T05:39:58.432Z,80.2
2023-05-10T05:42:00.209Z,67.3
2023-05-10T05:44:01.996Z,71.2
2023-05-10T05:46:03.818Z,75.5
2023-05-10T05:48:05.603Z,89.4
2023-05-10T05:52:09.149Z,78.1
2023-05-10T06:00:46.378Z,82.4
2023-05-10T06:02:48.274Z,66.7
2023-05-10T06:04:49.917Z,74.5
2023-05-10T06:06:54.954Z,68.5
2023-05-10T06:08:56.743Z,68.7
2023-05-10T06:10:58.530Z,81.7
2023-05-10T06:13:00.372Z,57.6
2023-05-10T06:17:03.932Z,63.1
2023-05-10T06:19:05.638Z,66.8
2023-05-10T06:21:10.684Z,74.1
2023-05-10T06:23:12.482Z,65.3
2023-05-10T06:25:14.537Z,61.8
2023-05-10T06:27:16.031Z,57.4
2023-05-10T06:31:19.640Z,57.1
2023-05-10T06:35:26.441Z,57.4
2023-05-10T06:37:28.235Z,60.7
2023-05-10T06:39:30.006Z,55.7
2023-05-10T06:41:31.771Z,69.4
2023-05-10T06:43:33.556Z,70.2
2023-05-10T06:49:42.140Z,67.5
2023-05-10T06:54:48.233Z,54.3
2023-05-10T06:56:50.040Z,86.4
2023-05-10T06:58:51.862Z,51.4
2023-05-10T07:00:53.811Z,61
2023-05-10T07:02:58.666Z,60.9
2023-05-10T07:05:02.796Z,53.8
2023-05-10T07:07:02.233Z,51
2023-05-10T07:09:04.018Z,48.2
2023-05-10T07:11:05.818Z,64.3
2023-05-10T07:13:07.627Z,54
2023-05-10T07:15:09.367Z,47.9
2023-05-10T07:17:14.446Z,63.3
2023-05-10T07:19:16.188Z,62.6
2023-05-10T07:23:19.735Z,47
2023-05-10T07:25:23.129Z,43.9
2023-05-10T07:27:24.824Z,52.1
2023-05-10T07:29:26.629Z,48.4
2023-05-10T07:31:31.674Z,50.5
2023-05-10T07:35:35.213Z,48.6
2023-05-10T07:37:36.995Z,45.7
2023-05-10T07:39:38.778Z,45.9
2023-05-10T07:41:40.582Z,49.5
2023-05-10T07:43:42.344Z,45.8
2023-05-10T07:45:47.422Z,44.8
2023-05-10T07:50:53.494Z,38.3
2023-05-10T07:52:55.255Z,49
2023-05-10T07:54:57.062Z,26
2023-05-10T07:56:58.854Z,30.1
2023-05-10T07:59:03.890Z,25.6
2023-05-10T08:01:05.710Z,26.5
2023-05-10T08:09:12.883Z,25.3
2023-05-10T08:11:14.689Z,23.6
2023-05-10T08:13:19.749Z,19
2023-05-10T08:15:21.528Z,30.2
2023-05-10T08:17:24.688Z,23.1
2023-05-10T08:19:25.128Z,14.9
2023-05-10T08:21:26.921Z,27.1
2023-05-10T08:23:28.726Z,19.5
2023-05-10T08:25:30.520Z,17.1
2023-05-10T08:31:39.293Z,18.8
2023-05-10T08:35:42.804Z,21.5
2023-05-10T08:37:44.588Z,15.3
2023-05-10T08:39:46.412Z,23.5
2023-05-10T08:45:55.062Z,14.2
2023-05-10T08:46:57.657Z,13.8
2023-05-10T08:48:59.373Z,20.5
2023-05-10T08:55:08.100Z,11.8
2023-05-10T08:57:09.865Z,22.5
2023-05-10T08:59:11.657Z,53.2
2023-05-10T09:03:15.240Z,23.1
2023-05-10T09:05:17.366Z,23.4
2023-05-10T09:07:18.844Z,17.6
2023-05-10T09:09:24.593Z,53.4
2023-05-10T09:11:26.376Z,47.1
2023-05-10T09:13:28.189Z,17.8
2023-05-10T09:19:33.584Z,24.3
2023-05-10T09:21:35.401Z,12.6
2023-05-10T09:23:40.413Z,14
2023-05-10T09:25:42.203Z,15.5
2023-05-10T09:27:44.054Z,21.2
2023-05-10T09:29:45.802Z,26.1
2023-05-10T09:33:49.416Z,25.7
2023-05-10T09:35:51.169Z,28.9
2023-05-10T09:37:56.252Z,14.8
2023-05-10T09:39:58.024Z,26.1
2023-05-10T09:41:59.827Z,16.8
2023-05-10T09:44:28.511Z,14.9
2023-05-10T09:46:30.319Z,19.9
2023-05-10T09:48:32.094Z,15
2023-05-10T09:50:37.123Z,17.3
2023-05-10T09:52:38.931Z,14.3
2023-05-10T09:54:40.728Z,18.3
2023-05-10T09:56:42.519Z,10.5
2023-05-10T10:08:56.814Z,13
2023-05-10T10:13:00.156Z,9
2023-05-10T10:15:01.940Z,8.8
2023-05-10T10:17:08.373Z,7.5
2023-05-10T10:19:08.806Z,7.7
2023-05-10T10:21:10.604Z,8.1
2023-05-10T10:23:12.913Z,10.5
2023-05-10T10:25:14.437Z,11
2023-05-10T10:29:17.826Z,8.8
2023-05-10T10:33:28.511Z,8.4
2023-05-10T10:35:26.470Z,8.6
2023-05-10T10:37:28.275Z,13.7
2023-05-10T10:40:34.658Z,16.8
2023-05-10T10:54:48.465Z,16
2023-05-10T11:07:02.485Z,5.5
2023-05-10T11:09:04.318Z,3.7
2023-05-10T11:11:06.080Z,3.4
2023-05-10T11:13:07.891Z,4.4
2023-05-10T11:23:20.129Z,4.7
2023-05-10T11:25:21.929Z,3.8
2023-05-10T11:27:23.626Z,6.8
2023-05-10T11:29:28.702Z,6.4
2023-05-10T11:34:35.015Z,11.6
2023-05-10T11:36:36.634Z,6.5
2023-05-10T11:38:38.442Z,4.7
2023-05-10T11:40:40.239Z,7.6
2023-05-10T11:42:45.289Z,6.3
2023-05-10T11:44:46.997Z,15.5
2023-05-10T11:46:48.814Z,5.9
2023-05-10T11:48:50.379Z,5.5
2023-05-10T11:57:00.419Z,7.1
2023-05-10T12:05:07.325Z,7.8
2023-05-10T12:17:20.620Z,2.9
2023-05-10T12:23:25.693Z,8
2023-05-10T12:29:34.250Z,3.4
2023-05-10T12:30:36.774Z,3.6
2023-05-10T12:34:40.369Z,8
2023-05-10T12:44:52.507Z,2.7
2023-05-10T12:46:54.215Z,4.4
2023-05-10T12:50:57.614Z,4.1
2023-05-10T12:53:02.681Z,3.6
2023-05-10T12:55:04.496Z,5.9
2023-05-10T12:57:06.303Z,5.8
2023-05-10T12:59:08.005Z,8.5
2023-05-10T13:03:11.561Z,6.3
2023-05-10T13:05:13.400Z,10.5
2023-05-10T13:09:20.148Z,17.7
2023-05-10T13:19:30.696Z,8.7
2023-05-10T13:23:37.535Z,11.5
2023-05-10T13:28:07.839Z,9.8
2023-05-10T13:30:09.768Z,5.6
2023-05-10T13:32:11.425Z,4.6
2023-05-10T13:34:16.301Z,6.8
2023-05-10T13:36:17.985Z,6.5
2023-05-10T13:38:22.393Z,8.7
2023-05-10T13:42:23.177Z,6.5
2023-05-10T13:44:24.973Z,7.8
2023-05-10T13:46:26.733Z,8.4
2023-05-10T13:50:33.366Z,7
2023-05-10T13:52:35.007Z,6.4
2023-05-10T13:54:36.711Z,4.5
2023-05-10T13:58:40.330Z,4.6
2023-05-10T14:00:42.117Z,4.1
2023-05-10T14:04:48.769Z,2.9
2023-05-10T14:06:50.461Z,4.3
2023-05-10T14:10:53.960Z,4.9
2023-05-10T14:12:55.754Z,7.1
2023-05-10T14:14:57.460Z,4.7
2023-05-10T14:17:02.511Z,8.9
2023-05-10T14:19:04.439Z,5.1
2023-05-10T14:21:05.914Z,8.1
2023-05-10T14:22:08.331Z,7.5
2023-05-10T14:34:21.768Z,10.5
2023-05-10T14:36:23.474Z,18.9
2023-05-10T14:40:26.883Z,9.7
2023-05-10T14:44:33.622Z,5
2023-05-10T14:46:35.573Z,7.1
2023-05-10T14:50:38.915Z,11.3
2023-05-10T14:58:48.960Z,7.8
2023-05-10T15:00:50.663Z,6.6
2023-05-10T15:02:52.419Z,4.7
2023-05-10T15:04:54.053Z,5.4
2023-05-10T15:06:55.766Z,6.3
2023-05-10T15:08:57.471Z,7.9
2023-05-10T15:10:59.164Z,7.7
2023-05-10T15:15:05.712Z,6
2023-05-10T15:17:07.539Z,5.2
2023-05-10T15:18:10.120Z,6.4
2023-05-10T15:22:13.667Z,6.4
2023-05-10T15:30:24.070Z,15
2023-05-10T15:32:25.887Z,9.1
2023-05-10T15:44:39.998Z,8.3
2023-05-10T15:46:41.859Z,8.9
2023-05-10T15:48:43.616Z,11
2023-05-10T15:56:54.099Z,14.3
2023-05-10T16:07:03.140Z,36.8
2023-05-10T16:09:08.166Z,23.9
2023-05-10T16:13:11.791Z,14.6
2023-05-10T16:14:14.328Z,16.6
2023-05-10T16:16:16.172Z,17.1
2023-05-10T16:18:18.083Z,13.4
2023-05-10T16:20:19.711Z,8.4
2023-05-10T16:22:24.777Z,16.9
2023-05-10T16:26:28.388Z,8.6
2023-05-10T16:28:30.178Z,8.3
2023-05-10T16:30:32.325Z,9
2023-05-10T16:34:35.583Z,8.5
2023-05-10T17:01:05.527Z,11.7
2023-05-10T17:03:07.395Z,10.5
2023-05-10T17:07:14.207Z,23.7
2023-05-10T17:09:15.996Z,20.3
2023-05-10T17:11:44.623Z,16.4
2023-05-10T17:13:46.417Z,11.3
2023-05-10T17:17:53.347Z,8.8
2023-05-10T17:21:56.910Z,13
2023-05-10T17:26:01.771Z,11.9
2023-05-10T17:30:04.134Z,14.4
2023-05-10T17:38:14.587Z,9.1
2023-05-10T17:40:16.388Z,6.9
2023-05-10T17:42:18.182Z,13.2
2023-05-10T17:50:28.684Z,14.9
2023-05-10T17:54:32.253Z,12.3
2023-05-10T17:56:34.091Z,8.8
2023-05-10T17:58:35.882Z,8.9
2023-05-10T18:00:40.910Z,11.7
2023-05-10T18:04:44.631Z,6.9
2023-05-10T18:05:47.101Z,25.1
2023-05-10T18:07:48.838Z,8
2023-05-10T18:09:50.628Z,11.1
2023-05-10T18:11:52.474Z,9
2023-05-10T18:13:57.518Z,7.6
2023-05-10T18:15:59.289Z,7.1
2023-05-10T18:18:01.137Z,7.9
2023-05-10T18:22:04.723Z,13.1
2023-05-10T18:26:08.323Z,14
2023-05-10T18:28:13.386Z,8.5
2023-05-10T18:32:16.964Z,7.6
2023-05-10T18:34:18.768Z,63.4
2023-05-10T18:40:24.182Z,11.1
2023-05-10T18:42:29.242Z,20.4
2023-05-10T18:44:31.016Z,12.1
2023-05-10T18:46:32.925Z,10.7
2023-05-10T18:48:34.629Z,11.1
2023-05-10T18:50:36.448Z,15.3
2023-05-10T18:52:38.255Z,12.7
2023-05-10T18:54:40.029Z,15.1
2023-05-10T18:56:45.113Z,14.1
2023-05-10T19:00:48.680Z,10.2
2023-05-10T19:03:53.009Z,10
2023-05-10T19:05:54.783Z,21.9
2023-05-10T19:07:58.149Z,9
2023-05-10T19:12:04.975Z,14.3
2023-05-10T19:18:10.392Z,14.8
2023-05-10T19:22:13.978Z,15.6
2023-05-10T19:24:18.991Z,14.3
2023-05-10T19:26:20.936Z,12.7
2023-05-10T19:28:22.601Z,16.2
2023-05-10T19:30:24.465Z,14.5
2023-05-10T19:32:26.251Z,15.4
2023-05-10T19:34:27.991Z,16.1
2023-05-10T19:36:29.786Z,13
2023-05-10T19:38:34.839Z,19.6
2023-05-10T19:40:36.625Z,19.2
2023-05-10T19:44:40.185Z,14.6
2023-05-10T19:57:56.777Z,15.3
2023-05-10T19:59:58.577Z,25.8
2023-05-10T20:02:00.366Z,18.8
2023-05-10T20:04:02.290Z,10.8
2023-05-10T20:06:07.195Z,16.7
2023-05-10T20:08:08.993Z,20
2023-05-10T20:12:12.596Z,18.5
2023-05-10T20:20:23.045Z,18.1
2023-05-10T20:22:25.335Z,25.5
2023-05-10T20:24:26.656Z,15
2023-05-10T20:26:28.420Z,13.3
2023-05-10T20:28:30.242Z,12.2
2023-05-10T20:38:42.457Z,9.8
2023-05-10T20:52:58.269Z,12.1
2023-05-10T20:55:26.930Z,13.4
2023-05-10T20:59:30.513Z,11.2
2023-05-10T21:07:41.005Z,13.2
2023-05-10T21:09:42.770Z,14.4
2023-05-10T21:11:44.574Z,10.5
2023-05-10T21:13:46.402Z,9.4
2023-05-10T21:15:51.500Z,11
2023-05-10T21:17:53.241Z,16.4
2023-05-10T21:19:55.023Z,14
2023-05-10T21:21:56.814Z,9.1
2023-05-10T21:23:58.650Z,18.9
2023-05-10T21:26:00.443Z,11.2
2023-05-10T21:34:10.850Z,29.4
2023-05-10T21:36:12.694Z,10
2023-05-10T21:38:14.470Z,10.7
2023-05-10T21:40:16.640Z,11.4
2023-05-10T21:44:23.100Z,13.3
2023-05-10T21:46:24.936Z,12.2
2023-05-10T21:48:26.717Z,10.2
2023-05-10T21:49:29.221Z,26.3
2023-05-10T21:51:31.019Z,11.8
2023-05-10T21:53:32.821Z,11.4
2023-05-10T21:55:34.597Z,8.2
2023-05-10T21:57:39.630Z,10.2
2023-05-10T21:59:41.444Z,20.8
2023-05-10T22:01:43.244Z,11.4
2023-05-10T22:03:45.080Z,10.2
2023-05-10T22:05:46.812Z,10.2
2023-05-10T22:07:48.634Z,18.2
2023-05-10T22:15:59.030Z,11.5
2023-05-10T22:18:00.902Z,11.6
2023-05-10T22:20:02.587Z,8.7
2023-05-10T22:22:04.385Z,10.6
2023-05-10T22:24:06.190Z,10.8
2023-05-10T22:26:11.862Z,9.7
2023-05-10T22:38:22.615Z,11.9
2023-05-10T22:40:27.657Z,11.8
2023-05-10T22:42:29.441Z,8
2023-05-10T22:44:31.207Z,10.5
2023-05-10T22:45:33.728Z,11.5
2023-05-10T22:47:35.569Z,8.3
2023-05-10T22:49:37.307Z,12.2
2023-05-10T22:51:39.108Z,10
2023-05-10T22:53:44.140Z,15.1
2023-05-10T22:55:45.933Z,9.1
2023-05-10T22:57:47.749Z,13.9
2023-05-10T22:59:49.515Z,9.9
2023-05-10T23:01:51.355Z,12.9
2023-05-10T23:03:53.096Z,9.5
2023-05-10T23:05:54.873Z,11.7
2023-05-10T23:07:59.920Z,15.4
2023-05-10T23:12:03.505Z,10.7
2023-05-10T23:14:05.309Z,10.3
2023-05-10T23:16:07.094Z,12.9
2023-05-10T23:18:08.964Z,21.4
2023-05-10T23:20:10.664Z,12.4
2023-05-10T23:22:15.677Z,8.6
2023-05-10T23:34:26.470Z,13.4
2023-05-10T23:38:33.315Z,14.4
2023-05-10T23:41:37.600Z,14.7
2023-05-10T23:45:41.320Z,11.4
2023-05-10T23:47:43.003Z,9.9
2023-05-10T23:49:48.012Z,12
2023-05-10T23:51:49.785Z,11.3
2023-05-10T23:53:51.579Z,8.9
2023-05-10T23:55:53.383Z,10.7
2023-05-10T23:57:55.162Z,15.3
2023-05-10T23:59:56.968Z,13.1
